Connell, Washington
Current Conditions -  °F | °C
As of 8:12 PM on Tuesday 25 Nov 2014 (Local Time) from KPSC Reporting Station
Overcast Overcast  
Wind Chill: 38°   Ceiling: 1400
Heat Index: 42°   Visibility: 10mi
Dew Point: 41°   Wind: 7mph
Humidity: 96%   Direction: 320°NW
Pressure: 30.24"   Gusts: NA
Location:  46.66°N, 118.86°W
Report Text: KPSC 260412Z 32006KT 10SM OVC014 06/05 A3024 RMK AO2 T00560050
Loading
Personal Weather Stations






























Interactive Weather Map New forecast layout! Learn more

10-Day Weather Forecast

Advertisements
Track Severe Weather on mobile